createdAt,value
2018-10-19T00:01:56.208Z,27.77
2018-10-19T00:04:24.285Z,29.97
2018-10-19T00:06:52.361Z,29.27
2018-10-19T00:09:20.530Z,28.73
2018-10-19T00:11:48.591Z,28.97
2018-10-19T00:14:16.670Z,26.97
2018-10-19T00:16:44.732Z,29.10
2018-10-19T00:19:12.800Z,28.90
2018-10-19T00:21:41.158Z,33.40
2018-10-19T00:24:09.263Z,29.90
2018-10-19T00:26:37.349Z,30.23
2018-10-19T00:29:05.745Z,26.60
2018-10-19T00:31:33.780Z,28.40
2018-10-19T00:34:01.863Z,30.50
2018-10-19T00:36:29.916Z,27.43
2018-10-19T00:38:58.069Z,26.30
2018-10-19T00:41:26.168Z,26.70
2018-10-19T00:43:54.254Z,27.70
2018-10-19T00:46:22.299Z,28.43
2018-10-19T00:48:50.396Z,28.57
2018-10-19T00:51:18.506Z,26.20
2018-10-19T00:53:46.953Z,29.27
2018-10-19T00:56:15.018Z,28.67
2018-10-19T00:58:43.070Z,28.60
2018-10-19T01:01:11.158Z,26.47
2018-10-19T01:03:39.239Z,27.80
2018-10-19T01:06:07.310Z,24.83
2018-10-19T01:08:35.384Z,26.60
2018-10-19T01:11:03.547Z,24.57
2018-10-19T01:13:31.733Z,26.20
2018-10-19T01:15:59.795Z,25.00
2018-10-19T01:18:27.880Z,25.23
2018-10-19T01:20:56.997Z,25.83
2018-10-19T01:23:25.038Z,28.23
2018-10-19T01:25:53.100Z,24.17
2018-10-19T01:28:21.183Z,24.67
2018-10-19T01:30:49.255Z,27.07
2018-10-19T01:33:17.320Z,22.97
2018-10-19T01:35:45.507Z,24.70
2018-10-19T01:38:13.559Z,23.67
2018-10-19T01:40:41.682Z,22.90
2018-10-19T01:43:09.816Z,23.00
2018-10-19T01:45:42.188Z,24.53
2018-10-19T01:48:10.371Z,23.60
2018-10-19T01:50:38.439Z,23.50
2018-10-19T01:53:06.507Z,22.93
2018-10-19T01:55:34.636Z,22.37
2018-10-19T01:58:02.895Z,23.80
2018-10-19T02:00:31.028Z,23.10
2018-10-19T02:02:59.167Z,24.20
2018-10-19T02:05:27.300Z,24.37
2018-10-19T02:07:55.455Z,21.30
2018-10-19T02:10:23.539Z,22.50
2018-10-19T02:12:51.708Z,20.40
2018-10-19T02:15:19.824Z,20.83
2018-10-19T02:17:47.995Z,19.67
2018-10-19T02:20:16.111Z,16.17
2018-10-19T02:22:44.207Z,18.27
2018-10-19T02:25:12.669Z,19.03
2018-10-19T02:27:41.496Z,17.80
2018-10-19T02:30:09.656Z,18.17
2018-10-19T02:32:37.858Z,16.40
2018-10-19T02:35:06.099Z,16.00
2018-10-19T02:37:34.374Z,15.10
2018-10-19T02:40:02.753Z,15.63
2018-10-19T02:42:30.812Z,15.27
2018-10-19T02:44:59.119Z,14.50
2018-10-19T02:48:51.842Z,15.83
2018-10-19T02:51:20.025Z,15.30
2018-10-19T02:53:48.103Z,14.57
2018-10-19T02:56:16.174Z,15.20
2018-10-19T02:58:44.467Z,14.80
2018-10-19T03:01:12.632Z,15.40
2018-10-19T03:03:40.692Z,15.13
2018-10-19T03:06:08.980Z,15.40
2018-10-19T03:08:37.067Z,16.87
2018-10-19T03:11:05.564Z,15.77
2018-10-19T03:13:33.785Z,14.80
2018-10-19T03:16:01.887Z,13.10
2018-10-19T03:18:30.032Z,14.87
2018-10-19T03:20:58.158Z,14.27
2018-10-19T03:23:26.313Z,16.80
2018-10-19T03:25:54.469Z,14.77
2018-10-19T03:28:22.559Z,14.63
2018-10-19T03:30:50.944Z,16.23
2018-10-19T03:33:19.023Z,15.13
2018-10-19T03:35:47.082Z,14.20
2018-10-19T03:38:15.244Z,15.23
2018-10-19T03:40:43.303Z,13.40
2018-10-19T03:43:11.396Z,15.83
2018-10-19T03:45:39.548Z,15.20
2018-10-19T03:48:07.625Z,15.37
2018-10-19T03:50:35.704Z,16.10
2018-10-19T03:53:03.807Z,17.47
2018-10-19T03:55:31.891Z,14.20
2018-10-19T03:58:00.018Z,17.17
2018-10-19T04:00:28.096Z,16.13
2018-10-19T04:02:56.420Z,16.23
2018-10-19T04:05:25.236Z,21.10
2018-10-19T04:07:53.383Z,16.73
2018-10-19T04:10:21.823Z,18.20
2018-10-19T04:12:49.945Z,18.03
2018-10-19T04:15:18.896Z,19.33
2018-10-19T04:17:46.952Z,20.43
2018-10-19T04:20:15.038Z,22.10
2018-10-19T04:22:43.213Z,22.63
2018-10-19T04:25:11.371Z,23.73
2018-10-19T04:27:39.516Z,22.07
2018-10-19T04:30:08.030Z,22.50
2018-10-19T04:32:36.095Z,21.17
2018-10-19T04:35:04.531Z,22.30
2018-10-19T04:37:32.878Z,24.37
2018-10-19T04:40:01.088Z,20.70
2018-10-19T04:42:29.216Z,22.27
2018-10-19T04:44:57.407Z,21.87
2018-10-19T04:47:25.556Z,21.30
2018-10-19T04:49:53.663Z,21.53
2018-10-19T04:52:21.804Z,26.70
2018-10-19T04:54:50.536Z,23.10
2018-10-19T04:57:18.828Z,22.37
2018-10-19T04:59:47.663Z,25.13
2018-10-19T05:02:15.859Z,26.00
2018-10-19T05:04:44.059Z,26.67
2018-10-19T05:07:12.088Z,27.70
2018-10-19T05:09:40.192Z,27.77
2018-10-19T05:12:08.584Z,27.30
2018-10-19T05:14:36.695Z,26.10
2018-10-19T05:17:05.156Z,25.37
2018-10-19T05:19:33.267Z,23.80
2018-10-19T05:22:01.422Z,25.50
2018-10-19T05:24:29.526Z,24.50
2018-10-19T05:26:57.672Z,24.23
2018-10-19T05:29:25.819Z,24.83
2018-10-19T05:31:53.922Z,26.23
2018-10-19T05:34:22.000Z,23.20
2018-10-19T05:36:50.070Z,26.10
2018-10-19T05:39:18.154Z,23.50
2018-10-19T05:41:46.226Z,23.90
2018-10-19T05:44:14.301Z,24.00
2018-10-19T05:46:42.472Z,24.00
2018-10-19T05:49:10.534Z,24.40
2018-10-19T05:51:38.595Z,26.30
2018-10-19T05:54:06.720Z,21.93
2018-10-19T05:56:34.903Z,25.60
2018-10-19T05:59:03.054Z,26.47
2018-10-19T06:01:31.200Z,26.10
2018-10-19T06:03:59.286Z,25.40
2018-10-19T06:06:27.585Z,25.50
2018-10-19T06:08:56.022Z,26.33
2018-10-19T06:11:24.087Z,25.83
2018-10-19T06:13:52.183Z,26.40
2018-10-19T06:16:20.461Z,29.37
2018-10-19T06:18:48.536Z,27.40
2018-10-19T06:21:16.741Z,26.97
2018-10-19T06:23:44.934Z,30.20
2018-10-19T06:26:13.168Z,25.60
2018-10-19T06:28:41.236Z,27.60
2018-10-19T06:31:09.409Z,27.27
2018-10-19T06:33:37.509Z,29.73
2018-10-19T06:36:05.591Z,25.67
2018-10-19T06:38:33.726Z,28.60
2018-10-19T06:41:01.869Z,31.97
2018-10-19T06:43:29.973Z,33.67
2018-10-19T06:45:59.015Z,34.13
2018-10-19T06:48:27.141Z,28.27
2018-10-19T06:50:55.204Z,31.03
2018-10-19T06:53:23.274Z,29.73
2018-10-19T06:55:51.364Z,29.87
2018-10-19T06:58:19.543Z,29.27
2018-10-19T07:00:47.695Z,29.37
2018-10-19T07:03:15.771Z,29.93
2018-10-19T07:05:43.888Z,28.43
2018-10-19T07:08:11.981Z,28.20
2018-10-19T07:10:40.112Z,29.90
2018-10-19T07:13:08.255Z,27.90
2018-10-19T07:15:36.403Z,29.13
2018-10-19T07:18:05.105Z,27.57
2018-10-19T07:20:33.192Z,25.33
2018-10-19T07:23:01.315Z,27.00
2018-10-19T07:25:29.323Z,30.00
2018-10-19T07:27:57.496Z,34.63
2018-10-19T07:30:25.572Z,35.30
2018-10-19T07:32:53.691Z,25.37
2018-10-19T07:35:21.828Z,25.57
2018-10-19T07:37:49.931Z,25.60
2018-10-19T07:40:18.072Z,22.97
2018-10-19T07:42:46.159Z,24.97
2018-10-19T07:45:14.324Z,24.40
2018-10-19T07:47:42.577Z,21.50
2018-10-19T07:50:10.688Z,21.40
2018-10-19T07:52:39.674Z,23.53
2018-10-19T07:55:08.974Z,21.13
2018-10-19T07:57:37.060Z,20.77
2018-10-19T08:00:06.066Z,20.73
2018-10-19T08:02:34.225Z,22.10
2018-10-19T08:05:02.387Z,22.40
2018-10-19T08:07:30.496Z,23.67
2018-10-19T08:09:59.069Z,23.10
2018-10-19T08:12:27.219Z,23.40
2018-10-19T08:14:55.590Z,24.40
2018-10-19T08:17:23.710Z,22.97
2018-10-19T08:19:51.875Z,24.00
2018-10-19T08:22:20.219Z,25.37
2018-10-19T08:24:49.620Z,24.40
2018-10-19T08:27:17.747Z,22.73
2018-10-19T08:29:45.908Z,24.33
2018-10-19T08:32:14.155Z,24.60
2018-10-19T08:34:42.220Z,26.83
2018-10-19T08:37:10.282Z,23.67
2018-10-19T08:39:38.365Z,23.37
2018-10-19T08:42:06.951Z,20.63
2018-10-19T08:44:35.143Z,20.03
2018-10-19T08:47:03.451Z,23.03
2018-10-19T08:49:31.568Z,24.30
2018-10-19T08:51:59.828Z,31.03
2018-10-19T08:54:27.925Z,21.80
2018-10-19T08:56:55.988Z,19.27
2018-10-19T08:59:24.136Z,19.87
2018-10-19T09:01:52.275Z,18.70
2018-10-19T09:04:20.405Z,15.67
2018-10-19T09:06:48.485Z,18.47
2018-10-19T09:09:16.595Z,17.97
2018-10-19T09:11:44.683Z,18.40
2018-10-19T09:14:24.233Z,18.17
2018-10-19T09:16:52.354Z,16.57
2018-10-19T09:19:20.529Z,14.80
2018-10-19T09:21:48.580Z,17.50
2018-10-19T09:24:16.671Z,18.73
2018-10-19T09:26:45.023Z,18.53
2018-10-19T09:29:14.224Z,22.50
2018-10-19T09:31:42.180Z,18.10
2018-10-19T09:34:10.291Z,17.83
2018-10-19T09:36:38.736Z,19.70
2018-10-19T09:39:09.419Z,19.37
2018-10-19T09:41:37.555Z,19.20
2018-10-19T09:44:05.671Z,21.23
2018-10-19T09:46:34.107Z,18.10
2018-10-19T09:49:02.251Z,19.07
2018-10-19T09:51:30.478Z,18.70
2018-10-19T09:53:58.588Z,19.53
2018-10-19T09:56:26.753Z,18.70
2018-10-19T09:58:54.978Z,18.40
2018-10-19T10:01:29.355Z,18.50
2018-10-19T10:03:57.539Z,17.83
2018-10-19T10:06:25.705Z,24.17
2018-10-19T10:08:53.882Z,22.03
2018-10-19T10:11:22.191Z,21.40
2018-10-19T10:13:50.352Z,18.93
2018-10-19T10:16:18.663Z,18.53
2018-10-19T10:18:46.761Z,18.90
2018-10-19T10:21:14.933Z,18.70
2018-10-19T10:23:43.455Z,19.73
2018-10-19T10:26:11.769Z,18.80
2018-10-19T10:28:39.927Z,19.73
2018-10-19T10:31:08.285Z,19.00
2018-10-19T10:33:36.355Z,18.87
2018-10-19T10:36:04.689Z,19.90
2018-10-19T10:38:33.060Z,18.30
2018-10-19T10:41:01.633Z,18.80
2018-10-19T10:43:29.804Z,18.40
2018-10-19T10:45:58.051Z,19.30
2018-10-19T10:48:26.224Z,19.10
2018-10-19T10:50:54.751Z,18.50
2018-10-19T10:53:22.823Z,19.60
2018-10-19T10:55:50.951Z,21.90
2018-10-19T10:58:19.076Z,19.13
2018-10-19T11:00:47.160Z,20.40
2018-10-19T11:03:15.383Z,20.07
2018-10-19T11:05:43.492Z,22.30
2018-10-19T11:08:11.654Z,21.50
2018-10-19T11:10:40.047Z,18.67
2018-10-19T11:13:08.188Z,24.10
2018-10-19T11:15:36.405Z,20.80
2018-10-19T11:18:04.731Z,20.83
2018-10-19T11:20:32.967Z,20.40
2018-10-19T11:23:01.256Z,21.40
2018-10-19T11:25:29.460Z,21.43
2018-10-19T11:27:57.629Z,22.13
2018-10-19T11:30:25.739Z,21.00
2018-10-19T11:32:53.828Z,21.60
2018-10-19T11:35:22.001Z,25.23
2018-10-19T11:37:50.251Z,27.77
2018-10-19T11:40:29.695Z,31.83
2018-10-19T11:42:58.117Z,21.47
2018-10-19T11:45:27.531Z,21.67
2018-10-19T11:47:55.656Z,22.27
2018-10-19T11:50:23.729Z,23.00
2018-10-19T11:52:51.972Z,21.40
2018-10-19T11:55:20.221Z,22.83
2018-10-19T11:57:49.070Z,22.30
2018-10-19T12:00:17.354Z,21.53
2018-10-19T12:02:45.545Z,22.03
2018-10-19T12:05:13.728Z,21.17
2018-10-19T12:07:42.313Z,22.27
2018-10-19T12:10:11.815Z,24.00
2018-10-19T12:12:40.298Z,21.90
2018-10-19T12:15:09.599Z,24.13
2018-10-19T12:17:38.083Z,21.87
2018-10-19T12:20:08.087Z,22.10
2018-10-19T12:22:36.434Z,20.87
2018-10-19T12:25:05.178Z,22.80
2018-10-19T12:27:33.320Z,23.00
2018-10-19T12:30:01.419Z,21.27
2018-10-19T12:32:29.576Z,22.03
2018-10-19T12:34:57.839Z,21.43
2018-10-19T12:37:26.094Z,22.57
2018-10-19T12:39:54.295Z,53.47
2018-10-19T12:42:22.359Z,22.37
2018-10-19T12:44:50.489Z,25.80
2018-10-19T12:47:35.158Z,24.33
2018-10-19T12:50:03.460Z,21.97
2018-10-19T12:52:31.576Z,23.20
2018-10-19T12:54:59.840Z,22.70
2018-10-19T12:57:28.017Z,23.10
2018-10-19T12:59:56.484Z,22.37
2018-10-19T13:02:24.593Z,25.60
2018-10-19T13:04:52.756Z,23.80
2018-10-19T13:07:21.022Z,23.97
2018-10-19T13:09:49.288Z,22.57
2018-10-19T13:12:17.432Z,23.97
2018-10-19T13:14:45.575Z,24.93
2018-10-19T13:17:13.736Z,25.17
2018-10-19T13:19:41.901Z,23.97
2018-10-19T13:22:10.154Z,25.17
2018-10-19T13:24:38.316Z,23.37
2018-10-19T13:27:06.530Z,26.20
2018-10-19T13:29:34.602Z,24.90
2018-10-19T13:32:03.776Z,27.80
2018-10-19T13:34:32.026Z,26.57
2018-10-19T13:37:00.235Z,24.67
2018-10-19T13:39:28.347Z,25.67
2018-10-19T13:41:56.619Z,25.40
2018-10-19T13:44:24.898Z,25.80
2018-10-19T13:46:53.593Z,25.83
2018-10-19T13:49:22.800Z,27.07
2018-10-19T13:51:51.292Z,24.60
2018-10-19T13:54:19.443Z,24.30
2018-10-19T13:56:47.599Z,24.33
2018-10-19T13:59:15.855Z,25.57
2018-10-19T14:01:43.980Z,27.23
2018-10-19T14:04:12.081Z,27.07
2018-10-19T14:06:40.211Z,25.10
2018-10-19T14:09:09.143Z,25.13
2018-10-19T14:11:37.621Z,27.03
2018-10-19T14:14:05.703Z,26.33
2018-10-19T14:16:33.979Z,26.53
2018-10-19T14:19:02.299Z,27.60
2018-10-19T14:21:30.546Z,24.83
2018-10-19T14:23:58.825Z,23.73
2018-10-19T14:26:26.896Z,24.37
2018-10-19T14:28:55.231Z,22.53
2018-10-19T14:31:23.647Z,32.13
2018-10-19T14:33:51.830Z,28.30
2018-10-19T14:36:20.089Z,26.50
2018-10-19T14:38:48.252Z,24.97
2018-10-19T14:41:16.399Z,24.93
2018-10-19T14:43:44.421Z,23.87
2018-10-19T14:46:12.710Z,23.80
2018-10-19T14:48:41.105Z,24.73
2018-10-19T14:51:09.518Z,23.40
2018-10-19T14:53:37.627Z,25.43
2018-10-19T14:56:05.802Z,23.10
2018-10-19T14:58:33.936Z,26.37
2018-10-19T15:01:02.099Z,25.00
2018-10-19T15:03:31.071Z,24.80
2018-10-19T15:05:59.244Z,24.80
2018-10-19T15:08:27.451Z,22.60
2018-10-19T15:10:55.728Z,23.97
2018-10-19T15:13:23.936Z,23.53
2018-10-19T15:15:52.056Z,24.10
2018-10-19T15:18:20.311Z,26.00
2018-10-19T15:20:48.377Z,25.07
2018-10-19T15:23:16.564Z,23.33
2018-10-19T15:25:44.712Z,23.27
2018-10-19T15:28:12.832Z,24.70
2018-10-19T15:30:40.975Z,23.23
2018-10-19T15:33:09.281Z,23.63
2018-10-19T15:35:37.408Z,23.70
2018-10-19T15:38:05.520Z,26.30
2018-10-19T15:40:33.713Z,27.70
2018-10-19T15:43:01.844Z,24.30
2018-10-19T15:45:29.933Z,25.63
2018-10-19T15:47:58.200Z,25.63
2018-10-19T15:50:26.247Z,24.73
2018-10-19T15:52:54.408Z,24.97
2018-10-19T15:55:22.524Z,25.30
2018-10-19T15:57:50.728Z,23.93
2018-10-19T16:00:18.939Z,25.00
2018-10-19T16:02:46.973Z,24.90
2018-10-19T16:05:15.098Z,24.90
2018-10-19T16:07:43.185Z,24.67
2018-10-19T16:10:11.549Z,23.27
2018-10-19T16:12:39.641Z,25.13
2018-10-19T16:15:08.919Z,22.70
2018-10-19T16:17:37.005Z,23.13
2018-10-19T16:20:06.996Z,22.77
2018-10-19T16:22:35.093Z,25.00
2018-10-19T16:25:03.323Z,30.73
2018-10-19T16:27:31.524Z,22.93
2018-10-19T16:29:59.803Z,25.23
2018-10-19T16:32:27.872Z,23.57
2018-10-19T16:34:55.964Z,23.70
2018-10-19T16:37:24.199Z,24.20
2018-10-19T16:39:52.283Z,23.13
2018-10-19T16:42:20.453Z,22.00
2018-10-19T16:44:48.572Z,21.90
2018-10-19T16:47:16.768Z,22.77
2018-10-19T16:49:44.941Z,22.13
2018-10-19T16:52:13.198Z,23.70
2018-10-19T16:54:41.315Z,22.57
2018-10-19T16:57:09.557Z,23.80
2018-10-19T16:59:37.993Z,25.90
2018-10-19T17:02:06.128Z,22.93
2018-10-19T17:04:35.381Z,24.53
2018-10-19T17:07:03.512Z,25.40
2018-10-19T17:09:31.712Z,26.23
2018-10-19T17:11:59.897Z,26.57
2018-10-19T17:14:28.008Z,25.83
2018-10-19T17:16:56.300Z,26.07
2018-10-19T17:19:24.502Z,30.60
2018-10-19T17:21:52.643Z,25.47
2018-10-19T17:24:20.956Z,23.67
2018-10-19T17:26:48.999Z,23.93
2018-10-19T17:29:17.266Z,23.57
2018-10-19T17:31:45.513Z,26.20
2018-10-19T17:34:13.703Z,23.80
2018-10-19T17:36:41.907Z,25.10
2018-10-19T17:39:10.916Z,24.70
2018-10-19T17:41:39.051Z,26.33
2018-10-19T17:44:07.617Z,24.33
2018-10-19T17:46:35.887Z,23.87
2018-10-19T17:49:04.230Z,24.90
2018-10-19T17:51:34.008Z,25.67
2018-10-19T17:54:02.312Z,23.93
2018-10-19T17:56:30.401Z,24.00
2018-10-19T17:58:58.555Z,25.10
2018-10-19T18:01:26.693Z,26.23
2018-10-19T18:03:54.890Z,26.37
2018-10-19T18:06:23.042Z,25.20
2018-10-19T18:08:51.281Z,24.70
2018-10-19T18:11:19.411Z,24.70
2018-10-19T18:13:47.564Z,23.90
2018-10-19T18:16:15.783Z,25.40
2018-10-19T18:18:44.102Z,24.97
2018-10-19T18:21:12.334Z,25.20
2018-10-19T18:23:40.625Z,41.90
2018-10-19T18:26:08.863Z,25.10
2018-10-19T18:28:37.892Z,27.17
2018-10-19T18:31:06.012Z,25.87
2018-10-19T18:33:34.196Z,24.77
2018-10-19T18:36:02.506Z,24.57
2018-10-19T18:38:30.700Z,23.50
2018-10-19T18:40:58.830Z,23.50
2018-10-19T18:43:27.033Z,23.63
2018-10-19T18:45:55.172Z,23.93
2018-10-19T18:48:26.307Z,24.57
2018-10-19T18:50:55.035Z,24.67
2018-10-19T18:53:23.217Z,24.07
2018-10-19T18:55:51.333Z,23.20
2018-10-19T18:58:19.532Z,24.20
2018-10-19T19:00:47.808Z,25.20
2018-10-19T19:03:16.282Z,25.93
2018-10-19T19:05:44.443Z,26.10
2018-10-19T19:08:12.828Z,23.27
2018-10-19T19:10:41.078Z,23.73
2018-10-19T19:13:14.661Z,24.40
2018-10-19T19:15:42.892Z,23.60
2018-10-19T19:18:11.264Z,26.70
2018-10-19T19:20:39.783Z,25.57
2018-10-19T19:23:08.124Z,25.10
2018-10-19T19:25:41.737Z,25.40
2018-10-19T19:28:09.968Z,25.67
2018-10-19T19:30:38.149Z,25.13
2018-10-19T19:33:11.776Z,23.07
2018-10-19T19:35:40.109Z,25.50
2018-10-19T19:38:08.296Z,23.43
2018-10-19T19:40:42.059Z,24.93
2018-10-19T19:43:10.272Z,28.60
2018-10-19T19:45:38.480Z,32.10
2018-10-19T19:48:12.103Z,26.43
2018-10-19T19:50:40.329Z,23.70
2018-10-19T19:53:08.476Z,24.50
2018-10-19T19:55:36.837Z,23.60
2018-10-19T19:58:05.345Z,24.30
2018-10-19T20:00:34.040Z,23.57
2018-10-19T20:03:02.768Z,24.73
2018-10-19T20:05:30.939Z,25.40
2018-10-19T20:07:59.448Z,26.10
2018-10-19T20:10:28.188Z,24.50
2018-10-19T20:12:56.424Z,23.20
2018-10-19T20:15:24.564Z,23.20
2018-10-19T20:17:52.748Z,25.23
2018-10-19T20:20:20.927Z,24.40
2018-10-19T20:22:49.219Z,25.63
2018-10-19T20:25:17.432Z,23.50
2018-10-19T20:27:45.553Z,24.37
2018-10-19T20:30:14.231Z,22.53
2018-10-19T20:32:42.411Z,25.53
2018-10-19T20:35:11.187Z,24.80
2018-10-19T20:37:39.382Z,25.60
2018-10-19T20:40:10.771Z,25.20
2018-10-19T20:42:38.891Z,26.40
2018-10-19T20:45:07.222Z,24.97
2018-10-19T20:47:35.355Z,26.60
2018-10-19T20:50:03.787Z,24.90
2018-10-19T20:52:31.984Z,24.97
2018-10-19T20:55:00.174Z,23.93
2018-10-19T20:57:28.399Z,26.63
2018-10-19T20:59:56.589Z,28.73
2018-10-19T21:02:26.341Z,29.97
2018-10-19T21:04:54.565Z,27.67
2018-10-19T21:07:22.983Z,27.57
2018-10-19T21:09:51.217Z,26.07
2018-10-19T21:12:20.035Z,27.77
2018-10-19T21:14:48.235Z,29.40
2018-10-19T21:17:16.534Z,26.43
2018-10-19T21:19:44.710Z,28.00
2018-10-19T21:22:13.059Z,26.23
2018-10-19T21:24:41.395Z,26.20
2018-10-19T21:27:09.851Z,27.13
2018-10-19T21:29:37.999Z,26.10
2018-10-19T21:32:07.256Z,27.10
2018-10-19T21:34:35.397Z,23.40
2018-10-19T21:37:04.461Z,25.00
2018-10-19T21:39:32.747Z,24.40
2018-10-19T21:42:01.317Z,24.97
2018-10-19T21:44:29.806Z,25.50
2018-10-19T21:47:06.827Z,26.00
2018-10-19T21:49:39.143Z,26.33
2018-10-19T21:52:08.557Z,25.30
2018-10-19T21:54:36.839Z,26.17
2018-10-19T21:57:05.253Z,24.93
2018-10-19T21:59:33.370Z,26.00
2018-10-19T22:02:01.682Z,24.93
2018-10-19T22:04:29.852Z,23.70
2018-10-19T22:06:58.051Z,24.37
2018-10-19T22:09:26.203Z,24.50
2018-10-19T22:11:54.492Z,25.00
2018-10-19T22:14:22.661Z,26.90
2018-10-19T22:16:50.860Z,25.33
2018-10-19T22:19:19.021Z,22.73
2018-10-19T22:21:47.200Z,25.87
2018-10-19T22:24:15.444Z,26.00
2018-10-19T22:26:43.617Z,27.00
2018-10-19T22:29:11.947Z,27.70
2018-10-19T22:31:39.984Z,28.93
2018-10-19T22:34:08.217Z,29.33
2018-10-19T22:36:36.296Z,32.40
2018-10-19T22:39:05.692Z,30.67
2018-10-19T22:41:33.776Z,32.93
2018-10-19T22:44:01.841Z,35.53
2018-10-19T22:46:29.967Z,34.10
2018-10-19T22:48:58.110Z,34.40
2018-10-19T22:51:26.408Z,34.57
2018-10-19T22:53:54.577Z,33.37
2018-10-19T22:56:22.846Z,31.27
2018-10-19T22:58:51.011Z,30.63
2018-10-19T23:01:19.207Z,29.70
2018-10-19T23:03:47.353Z,28.27
2018-10-19T23:06:15.536Z,27.70
2018-10-19T23:08:43.917Z,29.00
2018-10-19T23:11:12.102Z,27.67
2018-10-19T23:13:40.313Z,27.73
2018-10-19T23:16:08.444Z,23.00
2018-10-19T23:18:36.677Z,31.10
2018-10-19T23:21:04.965Z,25.40
2018-10-19T23:23:33.072Z,25.97
2018-10-19T23:26:01.300Z,25.87
2018-10-19T23:28:29.546Z,25.63
2018-10-19T23:30:57.752Z,22.90
2018-10-19T23:33:25.972Z,26.10
2018-10-19T23:35:54.139Z,24.40
2018-10-19T23:38:22.336Z,24.73
2018-10-19T23:40:50.485Z,25.43
2018-10-19T23:43:18.692Z,25.00
2018-10-19T23:45:46.835Z,27.17
2018-10-19T23:48:15.022Z,26.20
2018-10-19T23:50:43.215Z,27.37
2018-10-19T23:53:11.482Z,25.40
2018-10-19T23:55:39.535Z,25.63
2018-10-19T23:58:07.699Z,25.43
